createdAt,value
2017-11-16T00:01:27.614Z,49.00
2017-11-16T00:03:53.587Z,43.57
2017-11-16T00:06:19.559Z,42.43
2017-11-16T00:08:46.283Z,43.40
2017-11-16T00:11:12.234Z,52.70
2017-11-16T00:13:38.977Z,47.70
2017-11-16T00:16:04.946Z,44.37
2017-11-16T00:18:30.894Z,44.07
2017-11-16T00:20:56.886Z,42.37
2017-11-16T00:23:22.882Z,44.97
2017-11-16T00:25:48.862Z,44.97
2017-11-16T00:28:15.570Z,47.90
2017-11-16T00:30:41.554Z,43.33
2017-11-16T00:33:08.294Z,45.73
2017-11-16T00:35:34.276Z,35.33
2017-11-16T00:38:00.264Z,44.53
2017-11-16T00:40:26.227Z,38.27
2017-11-16T00:42:52.962Z,41.90
2017-11-16T00:45:18.906Z,37.43
2017-11-16T00:47:45.611Z,45.57
2017-11-16T00:50:11.600Z,39.03
2017-11-16T00:52:38.290Z,41.00
2017-11-16T00:55:04.285Z,38.10
2017-11-16T00:57:31.008Z,37.13
2017-11-16T00:59:57.010Z,36.33
2017-11-16T01:02:23.002Z,39.30
2017-11-16T01:04:48.958Z,44.60
2017-11-16T01:07:15.725Z,39.80
2017-11-16T01:09:41.688Z,38.37
2017-11-16T01:12:07.641Z,41.73
2017-11-16T01:14:33.623Z,38.90
2017-11-16T01:17:00.391Z,40.90
2017-11-16T01:19:26.349Z,34.20
2017-11-16T01:21:52.326Z,39.50
2017-11-16T01:24:18.265Z,39.93
2017-11-16T01:26:44.249Z,45.57
2017-11-16T01:29:10.206Z,35.57
2017-11-16T01:31:36.193Z,39.13
2017-11-16T01:34:02.192Z,32.93
2017-11-16T01:36:28.174Z,36.17
2017-11-16T01:38:54.115Z,37.77
2017-11-16T01:41:20.135Z,34.80
2017-11-16T01:43:46.094Z,38.40
2017-11-16T01:46:12.087Z,35.43
2017-11-16T01:48:38.770Z,37.77
2017-11-16T01:51:04.769Z,38.13
2017-11-16T01:53:30.734Z,37.10
2017-11-16T01:55:56.714Z,43.63
2017-11-16T01:58:22.703Z,37.37
2017-11-16T02:00:49.399Z,34.53
2017-11-16T02:03:15.357Z,41.43
2017-11-16T02:05:41.324Z,39.63
2017-11-16T02:08:08.018Z,42.70
2017-11-16T02:10:39.073Z,39.50
2017-11-16T02:13:05.037Z,34.00
2017-11-16T02:15:31.007Z,36.80
2017-11-16T02:17:56.971Z,36.77
2017-11-16T02:20:22.967Z,39.47
2017-11-16T02:22:49.650Z,37.23
2017-11-16T02:25:15.604Z,41.67
2017-11-16T02:27:41.574Z,34.23
2017-11-16T02:30:07.523Z,37.60
2017-11-16T02:32:34.244Z,35.47
2017-11-16T02:35:00.239Z,37.30
2017-11-16T02:37:26.184Z,38.57
2017-11-16T02:39:52.151Z,37.70
2017-11-16T02:42:18.090Z,40.57
2017-11-16T02:44:44.084Z,40.53
2017-11-16T02:47:10.030Z,48.17
2017-11-16T02:49:35.984Z,40.00
2017-11-16T02:52:01.972Z,42.60
2017-11-16T02:54:27.921Z,43.80
2017-11-16T02:56:53.866Z,37.77
2017-11-16T02:59:19.849Z,36.23
2017-11-16T03:01:45.831Z,42.73
2017-11-16T03:04:11.788Z,37.60
2017-11-16T03:06:37.746Z,40.73
2017-11-16T03:09:03.687Z,43.63
2017-11-16T03:11:29.664Z,44.67
2017-11-16T03:13:55.645Z,39.10
2017-11-16T03:16:21.647Z,37.40
2017-11-16T03:18:47.592Z,45.30
2017-11-16T03:21:13.607Z,43.60
2017-11-16T03:23:39.559Z,43.57
2017-11-16T03:26:05.499Z,36.27
2017-11-16T03:28:31.503Z,41.77
2017-11-16T03:30:57.446Z,43.00
2017-11-16T03:33:23.420Z,46.97
2017-11-16T03:35:49.386Z,41.57
2017-11-16T03:38:15.375Z,38.57
2017-11-16T03:40:41.322Z,40.97
2017-11-16T03:43:07.258Z,41.90
2017-11-16T03:45:33.231Z,42.50
2017-11-16T03:47:59.944Z,42.77
2017-11-16T03:50:25.930Z,38.20
2017-11-16T03:52:52.648Z,45.13
2017-11-16T03:55:18.630Z,43.10
2017-11-16T03:57:44.572Z,37.00
2017-11-16T04:00:10.569Z,37.80
2017-11-16T04:02:37.995Z,40.87
2017-11-16T04:05:03.938Z,44.57
2017-11-16T04:07:29.922Z,45.03
2017-11-16T04:09:56.647Z,41.73
2017-11-16T04:12:22.622Z,39.27
2017-11-16T04:14:49.346Z,37.50
2017-11-16T04:17:15.287Z,35.27
2017-11-16T04:19:41.271Z,40.13
2017-11-16T04:22:07.268Z,38.27
2017-11-16T04:24:33.202Z,52.27
2017-11-16T04:26:59.192Z,37.03
2017-11-16T04:29:25.152Z,37.53
2017-11-16T04:31:51.873Z,39.30
2017-11-16T04:34:17.803Z,37.57
2017-11-16T04:36:43.790Z,38.20
2017-11-16T04:39:10.505Z,36.00
2017-11-16T04:41:36.473Z,33.40
2017-11-16T04:44:03.195Z,42.73
2017-11-16T04:46:29.160Z,37.20
2017-11-16T04:48:55.156Z,38.17
2017-11-16T04:51:28.128Z,39.30
2017-11-16T04:53:54.094Z,38.60
2017-11-16T04:56:20.090Z,34.60
2017-11-16T04:58:46.783Z,33.27
2017-11-16T05:01:12.727Z,38.43
2017-11-16T05:03:38.699Z,35.03
2017-11-16T05:06:05.410Z,38.27
2017-11-16T05:08:31.345Z,40.90
2017-11-16T05:10:57.363Z,37.73
2017-11-16T05:13:23.315Z,38.90
2017-11-16T05:15:49.254Z,38.57
2017-11-16T05:18:15.247Z,40.00
2017-11-16T05:20:41.978Z,34.73
2017-11-16T05:23:07.934Z,38.97
2017-11-16T05:25:34.615Z,35.17
2017-11-16T05:28:00.602Z,34.70
2017-11-16T05:30:26.594Z,39.40
2017-11-16T05:32:52.580Z,38.30
2017-11-16T05:35:18.604Z,34.60
2017-11-16T05:37:44.563Z,36.23
2017-11-16T05:40:11.293Z,36.20
2017-11-16T05:42:37.230Z,37.07
2017-11-16T05:45:03.174Z,38.53
2017-11-16T05:47:29.158Z,46.30
2017-11-16T05:49:55.089Z,42.53
2017-11-16T05:52:21.035Z,39.17
2017-11-16T05:54:47.041Z,39.13
2017-11-16T05:57:13.805Z,39.93
2017-11-16T05:59:39.803Z,43.23
2017-11-16T06:02:05.747Z,43.67
2017-11-16T06:04:31.698Z,45.20
2017-11-16T06:06:58.415Z,39.80
2017-11-16T06:09:24.411Z,42.57
2017-11-16T06:11:50.403Z,46.13
2017-11-16T06:14:16.399Z,40.23
2017-11-16T06:16:42.374Z,47.57
2017-11-16T06:19:08.348Z,44.17
2017-11-16T06:21:34.298Z,47.23
2017-11-16T06:24:00.278Z,44.10
2017-11-16T06:26:26.234Z,43.40
2017-11-16T06:28:52.931Z,44.10
2017-11-16T06:31:18.923Z,47.30
2017-11-16T06:33:45.614Z,42.33
2017-11-16T06:36:11.566Z,47.10
2017-11-16T06:38:37.556Z,48.17
2017-11-16T06:41:03.505Z,50.17
2017-11-16T06:43:29.465Z,47.20
2017-11-16T06:45:55.454Z,52.80
2017-11-16T06:48:22.137Z,48.00
2017-11-16T06:50:48.102Z,52.70
2017-11-16T06:53:14.199Z,54.57
2017-11-16T06:55:40.150Z,45.50
2017-11-16T06:58:06.150Z,49.77
2017-11-16T07:00:32.894Z,53.73
2017-11-16T07:02:58.842Z,49.40
2017-11-16T07:05:25.539Z,44.53
2017-11-16T07:07:51.563Z,47.83
2017-11-16T07:10:17.516Z,52.03
2017-11-16T07:12:43.466Z,48.73
2017-11-16T07:15:09.444Z,46.73
2017-11-16T07:17:35.426Z,53.00
2017-11-16T07:20:01.419Z,46.10
2017-11-16T07:22:27.380Z,48.40
2017-11-16T07:24:53.330Z,43.47
2017-11-16T07:27:19.317Z,46.27
2017-11-16T07:29:46.006Z,46.07
2017-11-16T07:32:11.954Z,47.73
2017-11-16T07:34:37.939Z,42.10
2017-11-16T07:37:04.627Z,46.73
2017-11-16T07:39:30.574Z,45.00
2017-11-16T07:41:56.554Z,39.13
2017-11-16T07:44:23.250Z,43.30
2017-11-16T07:46:49.263Z,43.73
2017-11-16T07:49:15.275Z,42.40
2017-11-16T07:51:41.961Z,35.70
2017-11-16T07:54:07.950Z,41.30
2017-11-16T07:56:33.935Z,40.60
2017-11-16T07:58:59.887Z,36.63
2017-11-16T08:01:25.866Z,36.70
2017-11-16T08:03:51.811Z,39.73
2017-11-16T08:06:18.543Z,35.00
2017-11-16T08:08:44.531Z,40.20
2017-11-16T08:11:10.483Z,39.30
2017-11-16T08:13:36.463Z,47.07
2017-11-16T08:16:03.155Z,49.47
2017-11-16T08:18:29.157Z,40.30
2017-11-16T08:20:55.839Z,39.93
2017-11-16T08:23:21.803Z,36.50
2017-11-16T08:25:47.779Z,36.87
2017-11-16T08:28:14.522Z,41.87
2017-11-16T08:30:40.471Z,44.30
2017-11-16T08:33:07.168Z,47.70
2017-11-16T08:35:33.162Z,47.10
2017-11-16T08:37:59.857Z,43.90
2017-11-16T08:40:25.822Z,40.63
2017-11-16T08:42:51.774Z,43.23
2017-11-16T08:45:18.504Z,41.10
2017-11-16T08:47:44.449Z,45.80
2017-11-16T08:50:10.394Z,50.07
2017-11-16T08:52:36.373Z,41.37
2017-11-16T08:55:02.311Z,42.03
2017-11-16T08:57:28.295Z,44.63
2017-11-16T08:59:54.247Z,35.40
2017-11-16T09:02:21.050Z,37.90
2017-11-16T09:04:47.043Z,40.30
2017-11-16T09:07:13.735Z,38.60
2017-11-16T09:09:39.691Z,40.83
2017-11-16T09:12:05.662Z,38.70
2017-11-16T09:14:32.380Z,34.90
2017-11-16T09:16:58.338Z,34.13
2017-11-16T09:19:24.273Z,34.33
2017-11-16T09:21:50.268Z,31.67
2017-11-16T09:24:16.218Z,32.50
2017-11-16T09:26:42.183Z,27.87
2017-11-16T09:29:08.122Z,32.60
2017-11-16T09:31:34.859Z,27.27
2017-11-16T09:34:00.799Z,24.97
2017-11-16T09:36:26.753Z,23.90
2017-11-16T09:38:53.490Z,19.73
2017-11-16T09:41:19.451Z,23.47
2017-11-16T09:43:45.388Z,23.40
2017-11-16T09:46:11.371Z,22.40
2017-11-16T09:48:37.336Z,24.53
2017-11-16T09:51:03.279Z,21.77
2017-11-16T09:53:30.004Z,29.50
2017-11-16T09:55:55.947Z,23.80
2017-11-16T09:58:22.033Z,19.70
2017-11-16T10:00:48.043Z,28.90
2017-11-16T10:03:14.735Z,26.80
2017-11-16T10:05:40.720Z,23.60
2017-11-16T10:08:07.429Z,24.00
2017-11-16T10:10:33.411Z,21.20
2017-11-16T10:13:00.131Z,24.50
2017-11-16T10:15:26.147Z,24.00
2017-11-16T10:17:52.166Z,28.17
2017-11-16T10:20:18.220Z,27.87
2017-11-16T10:22:44.146Z,27.20
2017-11-16T10:25:10.081Z,25.60
2017-11-16T10:27:36.059Z,24.37
2017-11-16T10:30:02.004Z,29.37
2017-11-16T10:32:27.950Z,26.90
2017-11-16T10:34:53.967Z,26.43
2017-11-16T10:37:19.979Z,27.60
2017-11-16T10:39:45.910Z,24.23
2017-11-16T10:42:11.882Z,33.83
2017-11-16T10:44:38.570Z,26.93
2017-11-16T10:47:04.542Z,24.80
2017-11-16T10:49:30.482Z,25.10
2017-11-16T10:51:56.458Z,24.70
2017-11-16T10:54:23.192Z,24.10
2017-11-16T10:56:49.152Z,24.77
2017-11-16T10:59:15.875Z,25.50
2017-11-16T11:01:41.940Z,25.03
2017-11-16T11:04:08.649Z,23.10
2017-11-16T11:06:34.599Z,21.10
2017-11-16T11:09:00.575Z,22.37
2017-11-16T11:11:26.516Z,26.47
2017-11-16T11:13:53.262Z,25.43
2017-11-16T11:16:19.241Z,21.90
2017-11-16T11:18:45.227Z,26.90
2017-11-16T11:21:11.910Z,24.70
2017-11-16T11:23:37.890Z,21.47
2017-11-16T11:26:03.830Z,25.13
2017-11-16T11:28:29.771Z,25.57
2017-11-16T11:30:55.766Z,27.30
2017-11-16T11:33:21.765Z,25.67
2017-11-16T11:35:48.451Z,27.90
2017-11-16T11:38:14.440Z,25.23
2017-11-16T11:40:41.154Z,25.90
2017-11-16T11:43:07.131Z,25.97
2017-11-16T11:45:33.857Z,30.33
2017-11-16T11:47:59.826Z,27.77
2017-11-16T11:50:26.510Z,28.23
2017-11-16T11:52:52.503Z,29.20
2017-11-16T11:55:19.198Z,32.50
2017-11-16T11:57:45.143Z,31.87
2017-11-16T12:00:11.134Z,39.80
2017-11-16T12:02:37.838Z,32.47
2017-11-16T12:05:03.786Z,30.40
2017-11-16T12:07:29.788Z,28.57
2017-11-16T12:09:55.767Z,28.63
2017-11-16T12:12:21.847Z,28.20
2017-11-16T12:14:47.843Z,27.47
2017-11-16T12:17:13.800Z,25.50
2017-11-16T12:19:40.518Z,23.97
2017-11-16T12:22:06.470Z,25.63
2017-11-16T12:24:32.495Z,22.67
2017-11-16T12:26:58.444Z,24.50
2017-11-16T12:29:24.384Z,26.20
2017-11-16T12:31:50.384Z,26.50
2017-11-16T12:34:16.322Z,27.87
2017-11-16T12:36:42.304Z,24.43
2017-11-16T12:39:08.986Z,28.40
2017-11-16T12:41:34.955Z,29.53
2017-11-16T12:44:00.931Z,29.53
2017-11-16T12:46:27.606Z,24.00
2017-11-16T12:48:53.581Z,25.20
2017-11-16T12:51:19.523Z,27.10
2017-11-16T12:53:45.496Z,28.93
2017-11-16T12:56:11.434Z,27.13
2017-11-16T12:58:37.410Z,24.73
2017-11-16T13:01:03.355Z,25.67
2017-11-16T13:03:29.341Z,30.10
2017-11-16T13:05:55.282Z,27.57
2017-11-16T13:08:21.274Z,29.97
2017-11-16T13:10:47.259Z,25.53
2017-11-16T13:13:13.221Z,28.87
2017-11-16T13:15:39.195Z,24.77
2017-11-16T13:18:05.152Z,27.20
2017-11-16T13:20:31.874Z,25.80
2017-11-16T13:22:57.827Z,30.40
2017-11-16T13:25:24.523Z,27.70
2017-11-16T13:27:50.528Z,30.60
2017-11-16T13:30:17.222Z,26.03
2017-11-16T13:32:43.223Z,31.73
2017-11-16T13:35:09.210Z,30.30
2017-11-16T13:37:35.149Z,25.43
2017-11-16T13:40:01.102Z,25.67
2017-11-16T13:42:27.123Z,26.33
2017-11-16T13:44:53.083Z,27.40
2017-11-16T13:47:19.861Z,23.90
2017-11-16T13:49:45.826Z,26.40
2017-11-16T13:52:11.779Z,26.10
2017-11-16T13:54:37.767Z,29.00
2017-11-16T13:57:03.771Z,27.10
2017-11-16T13:59:29.705Z,29.53
2017-11-16T14:01:55.695Z,26.80
2017-11-16T14:04:21.638Z,28.77
2017-11-16T14:06:47.698Z,30.47
2017-11-16T14:09:13.655Z,29.40
2017-11-16T14:11:39.603Z,29.67
2017-11-16T14:14:06.354Z,26.73
2017-11-16T14:16:33.117Z,28.77
2017-11-16T14:18:59.069Z,29.13
2017-11-16T14:21:25.028Z,24.17
2017-11-16T14:23:51.025Z,28.37
2017-11-16T14:26:17.728Z,26.73
2017-11-16T14:28:43.812Z,27.80
2017-11-16T14:31:10.514Z,30.53
2017-11-16T14:33:36.514Z,25.53
2017-11-16T14:36:02.510Z,26.47
2017-11-16T14:38:28.472Z,26.57
2017-11-16T14:40:54.490Z,27.80
2017-11-16T14:43:21.180Z,27.83
2017-11-16T14:45:54.075Z,28.50
2017-11-16T14:48:20.074Z,28.20
2017-11-16T14:50:46.019Z,26.80
2017-11-16T14:53:12.733Z,26.40
2017-11-16T14:55:38.730Z,24.77
2017-11-16T14:58:04.746Z,28.50
2017-11-16T15:00:31.462Z,27.40
2017-11-16T15:02:57.507Z,24.47
2017-11-16T15:05:23.466Z,26.60
2017-11-16T15:07:50.166Z,26.50
2017-11-16T15:10:16.155Z,28.80
2017-11-16T15:12:42.126Z,25.37
2017-11-16T15:15:08.190Z,25.43
2017-11-16T15:17:34.174Z,25.23
2017-11-16T15:20:00.910Z,26.63
2017-11-16T15:22:26.862Z,27.83
2017-11-16T15:24:53.563Z,23.83
2017-11-16T15:27:19.566Z,25.07
2017-11-16T15:29:45.600Z,22.47
2017-11-16T15:32:11.570Z,25.03
2017-11-16T15:34:37.522Z,21.27
2017-11-16T15:37:03.509Z,25.30
2017-11-16T15:39:29.474Z,24.23
2017-11-16T15:41:55.476Z,26.90
2017-11-16T15:44:21.459Z,26.40
2017-11-16T15:46:47.410Z,24.70
2017-11-16T15:49:13.423Z,23.60
2017-11-16T15:51:39.383Z,26.33
2017-11-16T15:54:05.356Z,23.03
2017-11-16T15:56:32.146Z,22.07
2017-11-16T15:58:58.102Z,28.70
2017-11-16T16:01:24.081Z,23.23
2017-11-16T16:03:50.830Z,19.30
2017-11-16T16:06:17.518Z,18.67
2017-11-16T16:08:43.533Z,22.73
2017-11-16T16:11:09.524Z,19.83
2017-11-16T16:13:37.027Z,21.70
2017-11-16T16:16:03.755Z,21.63
2017-11-16T16:18:29.792Z,20.63
2017-11-16T16:20:55.742Z,24.33
2017-11-16T16:23:22.580Z,23.97
2017-11-16T16:25:48.535Z,22.70
2017-11-16T16:28:15.214Z,20.63
2017-11-16T16:30:41.191Z,20.30
2017-11-16T16:33:07.205Z,20.30
2017-11-16T16:35:33.223Z,19.10
2017-11-16T16:37:59.195Z,23.10
2017-11-16T16:40:25.184Z,23.20
2017-11-16T16:42:51.145Z,24.97
2017-11-16T16:45:17.147Z,18.63
2017-11-16T16:47:43.834Z,19.67
2017-11-16T16:50:09.859Z,21.73
2017-11-16T16:52:36.131Z,26.93
2017-11-16T16:55:02.198Z,23.23
2017-11-16T16:57:28.182Z,24.23
2017-11-16T16:59:54.169Z,23.60
2017-11-16T17:02:20.170Z,26.47
2017-11-16T17:04:46.154Z,23.40
2017-11-16T17:07:12.875Z,22.47
2017-11-16T17:09:38.859Z,23.80
2017-11-16T17:12:05.554Z,22.90
2017-11-16T17:14:31.537Z,22.77
2017-11-16T17:16:58.234Z,21.80
2017-11-16T17:19:24.305Z,27.67
2017-11-16T17:21:50.341Z,26.80
2017-11-16T17:24:16.294Z,24.00
2017-11-16T17:26:43.010Z,25.27
2017-11-16T17:29:09.027Z,23.83
2017-11-16T17:31:35.035Z,24.27
2017-11-16T17:34:00.974Z,27.33
2017-11-16T17:36:26.999Z,27.93
2017-11-16T17:38:53.715Z,26.00
2017-11-16T17:41:19.671Z,32.53
2017-11-16T17:43:45.646Z,23.53
2017-11-16T17:46:11.600Z,26.60
2017-11-16T17:48:37.543Z,27.60
2017-11-16T17:51:03.554Z,24.30
2017-11-16T17:53:29.503Z,27.80
2017-11-16T17:55:55.467Z,26.60
2017-11-16T17:58:21.476Z,27.70
2017-11-16T18:00:47.447Z,25.40
2017-11-16T18:03:13.399Z,27.33
2017-11-16T18:05:55.094Z,24.07
2017-11-16T18:08:21.102Z,29.40
2017-11-16T18:10:47.057Z,27.63
2017-11-16T18:13:13.038Z,27.57
2017-11-16T18:15:39.029Z,31.00
2017-11-16T18:18:06.463Z,31.50
2017-11-16T18:20:32.463Z,33.43
2017-11-16T18:22:59.199Z,30.87
2017-11-16T18:25:25.926Z,27.47
2017-11-16T18:27:51.910Z,27.80
2017-11-16T18:30:17.930Z,30.40
2017-11-16T18:32:44.626Z,28.13
2017-11-16T18:35:10.579Z,26.43
2017-11-16T18:37:36.572Z,29.70
2017-11-16T18:40:02.546Z,29.07
2017-11-16T18:42:28.490Z,27.30
2017-11-16T18:44:54.502Z,28.20
2017-11-16T18:47:20.471Z,26.10
2017-11-16T18:49:46.453Z,31.57
2017-11-16T18:52:12.455Z,30.03
2017-11-16T18:54:38.401Z,28.87
2017-11-16T18:57:05.120Z,28.33
2017-11-16T18:59:31.072Z,30.93
2017-11-16T19:01:57.058Z,32.60
2017-11-16T19:04:24.547Z,31.47
2017-11-16T19:06:50.553Z,30.70
2017-11-16T19:09:17.255Z,28.97
2017-11-16T19:11:43.199Z,33.53
2017-11-16T19:14:09.544Z,29.80
2017-11-16T19:16:35.496Z,32.10
2017-11-16T19:19:01.492Z,27.80
2017-11-16T19:21:27.439Z,33.17
2017-11-16T19:23:53.437Z,30.30
2017-11-16T19:26:19.422Z,34.40
2017-11-16T19:28:45.399Z,29.70
2017-11-16T19:31:11.356Z,29.90
2017-11-16T19:33:37.352Z,28.10
2017-11-16T19:36:04.043Z,28.13
2017-11-16T19:38:30.023Z,34.27
2017-11-16T19:40:55.979Z,36.17
2017-11-16T19:43:21.987Z,31.17
2017-11-16T19:45:47.942Z,26.50
2017-11-16T19:48:13.895Z,31.97
2017-11-16T19:50:39.914Z,32.40
2017-11-16T19:53:05.870Z,30.70
2017-11-16T19:55:32.559Z,33.13
2017-11-16T19:57:58.534Z,32.07
2017-11-16T20:00:24.537Z,36.27
2017-11-16T20:02:50.514Z,31.50
2017-11-16T20:05:17.253Z,34.10
2017-11-16T20:07:43.202Z,29.70
2017-11-16T20:10:09.174Z,37.70
2017-11-16T20:12:35.155Z,46.77
2017-11-16T20:15:01.147Z,42.57
2017-11-16T20:17:27.098Z,41.97
2017-11-16T20:19:53.116Z,39.10
2017-11-16T20:22:19.080Z,44.87
2017-11-16T20:24:45.081Z,43.47
2017-11-16T20:27:11.126Z,39.17
2017-11-16T20:29:37.074Z,33.70
2017-11-16T20:32:03.083Z,36.27
2017-11-16T20:34:29.771Z,38.00
2017-11-16T20:37:01.939Z,31.80
2017-11-16T20:39:30.795Z,38.17
2017-11-16T20:41:59.581Z,39.77
2017-11-16T20:44:25.572Z,35.73
2017-11-16T20:46:51.605Z,35.23
2017-11-16T20:52:21.967Z,29.57
2017-11-16T20:54:47.940Z,31.80
2017-11-16T20:57:14.695Z,34.30
2017-11-16T20:59:40.671Z,28.27
2017-11-16T21:02:06.618Z,31.30
2017-11-16T21:04:33.294Z,31.67
2017-11-16T21:06:59.269Z,30.77
2017-11-16T21:09:25.214Z,35.37
2017-11-16T21:11:51.208Z,33.50
2017-11-16T21:14:17.150Z,28.57
2017-11-16T21:16:43.126Z,28.27
2017-11-16T21:19:09.074Z,39.00
2017-11-16T21:21:35.787Z,32.00
2017-11-16T21:24:01.771Z,28.43
2017-11-16T21:26:28.500Z,29.03
2017-11-16T21:28:54.446Z,28.63
2017-11-16T21:31:20.440Z,29.30
2017-11-16T21:33:46.394Z,31.63
2017-11-16T21:36:12.358Z,28.00
2017-11-16T21:38:38.371Z,34.70
2017-11-16T21:41:04.323Z,36.07
2017-11-16T21:43:30.314Z,35.30
2017-11-16T21:45:56.254Z,33.00
2017-11-16T21:48:22.210Z,31.23
2017-11-16T21:50:48.190Z,28.60
2017-11-16T21:53:14.911Z,30.00
2017-11-16T21:55:40.899Z,32.17
2017-11-16T21:58:06.862Z,31.10
2017-11-16T22:00:32.839Z,31.20
2017-11-16T22:02:59.522Z,34.37
2017-11-16T22:05:25.523Z,32.40
2017-11-16T22:07:51.507Z,34.47
2017-11-16T22:10:17.451Z,30.20
2017-11-16T22:12:43.426Z,32.17
2017-11-16T22:15:09.388Z,29.83
2017-11-16T22:17:35.379Z,34.07
2017-11-16T22:20:01.364Z,30.63
2017-11-16T22:22:27.310Z,30.10
2017-11-16T22:24:53.267Z,33.27
2017-11-16T22:27:19.262Z,35.10
2017-11-16T22:29:45.942Z,29.37
2017-11-16T22:32:11.888Z,33.10
2017-11-16T22:34:37.857Z,33.53
2017-11-16T22:37:03.870Z,36.50
2017-11-16T22:39:29.828Z,29.83
2017-11-16T22:41:55.818Z,36.60
2017-11-16T22:44:21.774Z,27.67
2017-11-16T22:46:47.774Z,33.40
2017-11-16T22:49:13.730Z,32.03
2017-11-16T22:51:39.690Z,30.40
2017-11-16T22:54:05.664Z,29.80
2017-11-16T22:56:32.349Z,30.63
2017-11-16T22:58:58.327Z,36.20
2017-11-16T23:01:24.299Z,33.77
2017-11-16T23:03:50.278Z,37.33
2017-11-16T23:06:16.282Z,33.10
2017-11-16T23:08:42.278Z,34.37
2017-11-16T23:11:08.232Z,37.43
2017-11-16T23:13:34.953Z,38.00
2017-11-16T23:16:00.935Z,34.27
2017-11-16T23:18:26.919Z,35.50
2017-11-16T23:20:52.935Z,33.70
2017-11-16T23:23:18.915Z,37.20
2017-11-16T23:25:44.866Z,36.60
2017-11-16T23:28:11.645Z,38.43
2017-11-16T23:30:37.590Z,33.87
2017-11-16T23:33:03.542Z,36.10
2017-11-16T23:35:29.510Z,34.20
2017-11-16T23:37:55.489Z,33.87
2017-11-16T23:40:21.481Z,32.27
2017-11-16T23:42:47.435Z,31.63
2017-11-16T23:45:14.225Z,32.13
2017-11-16T23:47:40.184Z,37.10
2017-11-16T23:50:06.911Z,35.83
2017-11-16T23:52:32.907Z,34.53
2017-11-16T23:54:59.590Z,34.07
2017-11-16T23:57:25.582Z,32.70
2017-11-16T23:59:51.553Z,34.83
